Time;durP1;ratioP1;P1;durP2;ratioP2;P2;SDS_P1;SDS_P2;PMS_P1;PMS_P2;Temp;Humidity;BMP_temperature;BMP_pressure;BME280_temperature;BME280_humidity;BME280_pressure;Samples;Min_cycle;Max_cycle;Signal;HPM_P1;HPM_P2
2022/08/15 00:03:35;;;;;;;8.95;7.97;;;;;;;20.14;65.93;95992.72;10457512;28;20045;-58
2022/08/15 00:08:58;;;;;;;8.68;7.82;;;;;;;20.13;65.71;95983.03;10471084;28;20033;-58
2022/08/15 00:14:25;;;;;;;8.77;7.97;;;;;;;20.14;65.84;95973.81;10456542;28;20510;-58
2022/08/15 00:19:47;;;;;;;8.30;7.55;;;;;;;20.12;65.70;95971.44;10464050;28;20373;-58
2022/08/15 00:25:06;;;;;;;9.00;8.10;;;;;;;20.12;65.66;95962.53;10455153;28;20489;-58
2022/08/15 00:30:26;;;;;;;8.65;7.90;;;;;;;20.12;65.61;95954.44;10459582;28;20048;-58
2022/08/15 00:35:49;;;;;;;9.18;8.23;;;;;;;20.10;65.70;95946.66;10455800;28;20744;-58
2022/08/15 00:46:57;;;;;;;10.52;8.82;;;;;;;20.08;65.88;95958.97;10461756;28;20381;-57
2022/08/15 00:52:22;;;;;;;9.50;8.63;;;;;;;20.08;66.00;95958.97;10478932;28;20098;-57
2022/08/15 00:57:44;;;;;;;9.63;8.60;;;;;;;20.07;66.14;95962.78;10449491;28;20086;-57
2022/08/15 01:03:08;;;;;;;9.73;8.82;;;;;;;20.07;66.28;95969.00;10489121;28;20041;-57
2022/08/15 01:08:34;;;;;;;11.98;8.52;;;;;;;20.07;65.89;95979.81;10453716;28;20053;-58
2022/08/15 01:13:56;;;;;;;9.18;8.35;;;;;;;20.06;65.85;95974.75;10476373;28;20045;-58
2022/08/15 01:19:23;;;;;;;10.32;8.23;;;;;;;20.04;65.80;95979.72;10475646;28;20053;-58
2022/08/15 01:24:56;;;;;;;9.48;8.60;;;;;;;20.03;65.69;95978.16;10492581;28;20052;-58
2022/08/15 01:30:18;;;;;;;9.20;8.18;;;;;;;20.01;65.61;95973.06;10493304;28;20083;-57
2022/08/15 01:35:38;;;;;;;9.07;8.15;;;;;;;20.00;65.31;95976.16;10521460;28;20041;-58
2022/08/15 01:41:18;;;;;;;10.43;8.30;;;;;;;20.00;65.07;95974.22;10487333;28;20052;-57
2022/08/15 01:46:43;;;;;;;8.80;7.88;;;;;;;19.98;64.95;95970.31;10504698;28;20048;-58
2022/08/15 01:52:04;;;;;;;8.38;7.68;;;;;;;19.95;64.76;95971.75;10479797;28;20055;-58
2022/08/15 01:57:24;;;;;;;8.77;7.93;;;;;;;19.94;64.66;95976.38;10524493;28;20048;-58
2022/08/15 02:02:45;;;;;;;8.95;8.10;;;;;;;19.91;64.33;95971.66;10494226;28;20076;-58
2022/08/15 02:08:05;;;;;;;10.10;8.07;;;;;;;19.87;64.37;95965.38;10501982;28;20103;-58
2022/08/15 02:13:26;;;;;;;8.60;7.80;;;;;;;19.86;64.28;95966.53;10492729;28;20052;-58
2022/08/15 02:18:47;;;;;;;9.05;8.15;;;;;;;19.85;63.81;95970.34;10540049;28;20052;-58
2022/08/15 02:24:11;;;;;;;8.98;7.88;;;;;;;19.85;63.62;95972.28;10500510;28;20064;-58
2022/08/15 02:29:31;;;;;;;8.32;7.47;;;;;;;19.83;63.54;95977.25;10539720;28;20044;-57
2022/08/15 02:34:51;;;;;;;8.48;7.63;;;;;;;19.81;63.40;95977.56;10531029;28;20388;-58
2022/08/15 02:40:14;;;;;;;8.73;7.82;;;;;;;19.79;63.24;95968.25;10525191;28;20059;-55
2022/08/15 02:45:37;;;;;;;9.15;8.35;;;;;;;19.75;63.50;95963.53;10483172;28;20051;-58
2022/08/15 02:50:57;;;;;;;8.23;7.53;;;;;;;19.72;63.71;95958.84;10502317;28;20048;-58
2022/08/15 02:56:22;;;;;;;7.22;6.63;;;;;;;19.71;63.61;95959.94;10485513;28;20052;-58
2022/08/15 03:01:42;;;;;;;7.95;7.25;;;;;;;19.70;63.86;95958.34;10502246;28;20048;-58
2022/08/15 03:07:02;;;;;;;8.60;7.80;;;;;;;19.69;64.11;95947.88;10498348;28;20044;-58
2022/08/15 03:12:25;;;;;;;8.75;7.85;;;;;;;19.69;64.13;95943.25;10483505;28;20072;-58
2022/08/15 03:17:44;;;;;;;8.77;7.97;;;;;;;19.69;64.31;95943.25;10489017;28;20052;-58
2022/08/15 03:23:06;;;;;;;9.35;8.55;;;;;;;19.70;64.77;95949.47;10489955;28;20075;-58
2022/08/15 03:28:32;;;;;;;9.15;8.35;;;;;;;19.70;64.74;95944.84;10496887;28;20040;-58
2022/08/15 03:33:56;;;;;;;9.23;8.43;;;;;;;19.69;64.96;95942.50;10498036;28;20048;-57
2022/08/15 03:39:16;;;;;;;9.07;8.27;;;;;;;19.68;65.22;95946.31;10524937;28;20049;-58
2022/08/15 03:44:36;;;;;;;9.80;8.95;;;;;;;19.69;65.35;95950.59;10486911;28;20381;-58
2022/08/15 03:49:57;;;;;;;10.18;9.27;;;;;;;19.70;65.74;95957.59;10511238;28;20052;-58
2022/08/15 03:55:18;;;;;;;10.35;9.25;;;;;;;19.71;65.76;95961.84;10483073;28;20381;-58
2022/08/15 04:00:44;;;;;;;9.55;8.65;;;;;;;19.72;65.79;95968.88;10484983;28;20052;-58
2022/08/15 04:06:06;;;;;;;9.60;8.65;;;;;;;19.72;65.94;95969.63;10484260;28;20052;-58
2022/08/15 04:11:29;;;;;;;9.70;8.90;;;;;;;19.73;65.93;95959.59;10516745;28;20048;-58
2022/08/15 04:16:48;;;;;;;9.65;8.75;;;;;;;19.73;65.89;95967.72;10528489;28;20048;-58
2022/08/15 04:22:08;;;;;;;9.70;8.80;;;;;;;19.72;65.80;95963.47;10540433;28;20060;-57
2022/08/15 04:27:27;;;;;;;8.75;7.85;;;;;;;19.71;65.79;95972.66;10511523;28;20056;-58
2022/08/15 04:32:49;;;;;;;8.57;7.78;;;;;;;19.70;65.63;95965.69;10525346;28;20055;-57
2022/08/15 04:38:09;;;;;;;8.32;7.53;;;;;;;19.68;65.53;95970.63;10532730;28;20056;-59
2022/08/15 04:43:31;;;;;;;8.23;7.43;;;;;;;19.70;65.26;95971.88;10503768;28;20105;-58
2022/08/15 04:48:50;;;;;;;7.93;7.07;;;;;;;19.74;65.13;95978.19;10521282;28;20045;-59
2022/08/15 04:54:10;;;;;;;7.57;6.78;;;;;;;19.78;64.81;95978.28;10512157;28;20045;-58
2022/08/15 04:59:33;;;;;;;7.20;6.57;;;;;;;19.82;64.72;95981.88;10513658;28;20093;-58
2022/08/15 05:04:52;;;;;;;7.38;6.68;;;;;;;19.84;64.69;95974.19;10519543;28;20037;-58
2022/08/15 05:10:12;;;;;;;7.55;6.85;;;;;;;19.87;64.53;95972.72;10534946;28;20036;-59
2022/08/15 05:15:34;;;;;;;7.93;6.80;;;;;;;19.87;64.53;95967.31;10498092;28;20105;-58
2022/08/15 05:20:55;;;;;;;7.22;6.57;;;;;;;19.89;64.40;95967.75;10495634;28;20056;-58
2022/08/15 05:26:15;;;;;;;9.75;6.47;;;;;;;19.89;64.47;95973.94;10498322;28;20052;-58
2022/08/15 05:31:35;;;;;;;6.90;6.30;;;;;;;19.90;64.39;95975.50;10508703;28;20542;-58
2022/08/15 05:37:01;;;;;;;7.72;7.03;;;;;;;19.90;64.23;95972.81;10483640;28;20056;-58
2022/08/15 05:42:35;;;;;;;8.13;7.35;;;;;;;19.90;64.41;95978.22;10493576;28;20048;-58
2022/08/15 05:48:10;;;;;;;8.40;7.45;;;;;;;19.93;64.49;95974.03;10504343;28;20055;-59
2022/08/15 05:53:43;;;;;;;10.93;9.25;;;;;;;19.93;65.12;95985.66;10499466;28;20101;-58
2022/08/15 05:59:13;;;;;;;11.38;9.57;;;;;;;19.93;66.04;95980.25;10524031;28;20045;-57
2022/08/15 06:04:44;;;;;;;11.95;10.05;;;;;;;19.94;66.66;95981.78;10528086;28;20638;-58
2022/08/15 06:10:17;;;;;;;10.55;9.55;;;;;;;19.94;66.54;95965.56;10506026;28;20106;-58
2022/08/15 06:15:54;;;;;;;10.75;9.15;;;;;;;19.97;66.65;95969.50;10504997;28;20052;-57
2022/08/15 06:21:40;;;;;;;9.30;8.50;;;;;;;19.98;66.70;95973.00;10503904;28;20063;-57
2022/08/15 06:27:10;;;;;;;10.32;9.43;;;;;;;19.98;66.99;95975.72;10501243;28;20056;-58
2022/08/15 06:32:38;;;;;;;10.02;9.02;;;;;;;19.99;67.30;95969.94;10506391;28;20048;-57
2022/08/15 06:38:18;;;;;;;9.63;8.73;;;;;;;19.99;66.96;95969.94;10538022;28;20074;-56
2022/08/15 06:43:38;;;;;;;10.32;9.27;;;;;;;19.99;67.07;95983.44;10502593;28;20109;-56
2022/08/15 06:49:01;;;;;;;10.00;9.05;;;;;;;20.00;67.22;95990.44;10526606;28;20048;-58
2022/08/15 06:54:24;;;;;;;10.02;9.13;;;;;;;20.01;67.24;95993.94;10477693;28;20063;-58
2022/08/15 06:59:59;;;;;;;10.23;9.00;;;;;;;20.01;67.22;95993.94;10499253;28;20114;-57
2022/08/15 07:05:34;;;;;;;10.18;9.27;;;;;;;20.01;67.21;95986.59;10490602;28;20067;-58
2022/08/15 07:10:55;;;;;;;9.57;8.77;;;;;;;20.02;67.24;95988.19;10504289;28;20389;-59
2022/08/15 07:16:34;;;;;;;9.20;8.40;;;;;;;20.04;67.16;95979.72;10492981;28;20061;-58
2022/08/15 07:21:53;;;;;;;9.18;8.27;;;;;;;20.05;67.21;95986.69;10484152;28;20060;-58
2022/08/15 07:27:17;;;;;;;9.23;8.40;;;;;;;20.06;67.26;95982.88;10501683;28;20047;-58
2022/08/15 07:32:52;;;;;;;9.35;8.27;;;;;;;20.07;67.45;95982.53;10481487;28;20042;-58
2022/08/15 07:38:12;;;;;;;9.20;8.40;;;;;;;20.07;67.46;95979.81;10513818;28;20048;-58
2022/08/15 07:43:35;;;;;;;9.02;8.23;;;;;;;20.08;67.50;95975.19;10497413;28;20052;-57
2022/08/15 07:49:19;;;;;;;9.13;8.20;;;;;;;20.09;67.39;95974.03;10538204;28;20048;-58
2022/08/15 07:54:41;;;;;;;8.75;7.95;;;;;;;20.10;67.61;95975.63;10478154;28;20458;-56
2022/08/15 08:00:04;;;;;;;8.82;8.02;;;;;;;20.11;67.56;95969.06;10494769;28;20513;-58
2022/08/15 08:05:54;;;;;;;9.10;8.30;;;;;;;20.10;67.62;95979.13;10486134;28;20056;-58
2022/08/15 08:11:22;;;;;;;8.43;7.72;;;;;;;20.13;67.71;95983.03;10469396;28;20541;-58
2022/08/15 08:16:59;;;;;;;9.13;8.23;;;;;;;20.14;67.86;95984.63;10518056;28;20048;-58
2022/08/15 08:23:04;;;;;;;8.60;7.90;;;;;;;20.15;67.87;95988.91;10492044;28;20052;-59
2022/08/15 08:28:36;;;;;;;8.55;7.75;;;;;;;20.14;67.70;95987.31;10520156;28;20048;-59
2022/08/15 08:34:06;;;;;;;9.52;7.85;;;;;;;20.13;67.52;95996.56;10497550;28;20403;-59
2022/08/15 08:39:40;;;;;;;8.30;7.50;;;;;;;20.14;67.53;95995.44;10518839;28;20048;-58
2022/08/15 08:45:06;;;;;;;7.95;7.25;;;;;;;20.13;67.46;95996.56;10497285;28;20052;-59
2022/08/15 08:50:41;;;;;;;8.43;7.63;;;;;;;20.13;67.30;95993.84;10489880;28;20056;-59
2022/08/15 08:56:14;;;;;;;7.55;6.90;;;;;;;20.15;67.21;95991.63;10518814;28;20357;-59
2022/08/15 09:01:35;;;;;;;6.93;6.32;;;;;;;20.15;67.33;95986.97;10513764;28;20106;-59
2022/08/15 09:06:56;;;;;;;7.68;6.82;;;;;;;20.16;67.39;95990.47;10496488;28;20048;-58
2022/08/15 09:18:06;;;;;;;25.25;12.60;;;;;;;20.18;67.25;95979.31;10518068;28;20470;-59
2022/08/15 09:23:35;;;;;;;19.77;12.48;;;;;;;20.19;67.25;95987.06;10492657;28;20480;-59
2022/08/15 09:29:08;;;;;;;14.95;10.82;;;;;;;20.19;67.48;95984.38;10502879;28;20500;-59
2022/08/15 09:34:41;;;;;;;12.02;9.40;;;;;;;20.20;67.58;95983.22;10490160;28;20060;-59
2022/08/15 09:40:42;;;;;;;13.13;9.23;;;;;;;20.21;67.66;95976.69;10514260;28;20043;-59
2022/08/15 09:46:39;;;;;;;10.35;8.60;;;;;;;20.21;67.59;95982.09;10345656;28;20061;-59
2022/08/15 09:52:24;;;;;;;10.93;8.10;;;;;;;20.22;67.43;95972.06;10504391;28;20061;-59
2022/08/15 09:57:58;;;;;;;10.55;8.63;;;;;;;20.22;67.35;95959.31;10478389;28;20049;-58
2022/08/15 10:03:24;;;;;;;8.60;7.32;;;;;;;20.22;67.14;95950.44;10515781;28;20066;-58
2022/08/15 10:08:53;;;;;;;8.38;7.55;;;;;;;20.22;67.25;95953.13;10506519;28;20053;-58
2022/08/15 10:14:21;;;;;;;8.43;6.72;;;;;;;20.23;67.15;95941.97;10535121;28;20603;-58
2022/08/15 10:19:41;;;;;;;7.47;6.75;;;;;;;20.24;67.29;95932.72;10503281;28;20045;-58
2022/08/15 10:25:20;;;;;;;7.13;6.43;;;;;;;20.24;67.29;95935.41;10509622;28;20083;-59
2022/08/15 10:30:46;;;;;;;;;;;;;;;20.24;67.26;95924.59;10510357;28;20399;-59
2022/08/15 10:36:14;;;;;;;7.13;6.43;;;;;;;20.24;67.03;95924.59;10499802;28;19927;-59
2022/08/15 10:41:34;;;;;;;6.55;6.03;;;;;;;20.25;67.05;95926.19;10514969;28;20060;-59
2022/08/15 10:47:05;;;;;;;6.72;6.10;;;;;;;20.25;66.84;95928.09;10540899;28;20052;-59
2022/08/15 10:52:40;;;;;;;8.75;6.28;;;;;;;20.26;66.85;95922.31;10539228;28;20052;-59
2022/08/15 10:58:09;;;;;;;6.28;5.68;;;;;;;20.26;66.86;95927.72;10499350;28;20094;-59
2022/08/15 11:03:39;;;;;;;6.97;6.38;;;;;;;20.29;66.80;95931.69;10499473;28;20063;-59
2022/08/15 11:09:12;;;;;;;6.88;6.28;;;;;;;20.29;66.67;95921.63;10502255;28;20048;-59
2022/08/15 11:14:39;;;;;;;7.35;5.78;;;;;;;20.30;66.79;95911.59;10512900;28;20075;-59
2022/08/15 11:20:14;;;;;;;6.80;6.10;;;;;;;20.28;66.66;95920.06;10510302;28;20069;-58
2022/08/15 11:25:37;;;;;;;6.72;6.13;;;;;;;20.30;66.69;95920.50;10498115;28;20056;-59
2022/08/15 11:31:25;;;;;;;6.53;5.93;;;;;;;20.29;66.52;95910.81;10524959;28;20048;-58
2022/08/15 11:36:45;;;;;;;;;;;;;;;20.30;66.55;95912.38;10494511;28;20473;-59
2022/08/15 11:42:07;;;;;;;6.47;5.88;;;;;;;20.30;66.41;95912.38;10511400;28;19927;-59
2022/08/15 11:47:31;;;;;;;6.13;5.63;;;;;;;20.32;66.34;95898.50;10499494;28;20051;-59
2022/08/15 11:52:56;;;;;;;6.30;5.72;;;;;;;20.32;66.31;95890.41;10493973;28;20109;-58
2022/08/15 11:58:16;;;;;;;6.10;5.60;;;;;;;20.31;66.16;95881.50;10515431;28;20382;-59
2022/08/15 12:03:36;;;;;;;6.30;5.80;;;;;;;20.32;66.03;95874.16;10522915;28;20047;-57
2022/08/15 12:09:09;;;;;;;6.03;5.55;;;;;;;20.31;65.97;95878.03;10494742;28;20047;-59
2022/08/15 12:14:29;;;;;;;6.03;5.55;;;;;;;20.32;65.87;95872.22;10506857;28;20439;-59
2022/08/15 12:19:54;;;;;;;6.20;5.70;;;;;;;20.32;65.83;95866.81;10522817;28;20063;-59
2022/08/15 12:25:16;;;;;;;6.10;5.60;;;;;;;20.35;65.75;95866.13;10487620;28;20072;-58
2022/08/15 12:30:35;;;;;;;6.88;5.85;;;;;;;20.34;65.64;95864.56;10496647;28;20052;-59
2022/08/15 12:35:54;;;;;;;5.75;5.35;;;;;;;20.35;65.58;95859.94;10527496;28;20040;-59
2022/08/15 12:41:14;;;;;;;6.00;5.47;;;;;;;20.34;65.63;95869.19;10497105;28;20044;-58
2022/08/15 12:46:33;;;;;;;6.30;5.80;;;;;;;20.34;65.61;95875.38;10501537;28;20177;-59
2022/08/15 12:51:52;;;;;;;5.85;5.38;;;;;;;20.37;65.56;95883.94;10501916;28;20056;-59
2022/08/15 12:57:11;;;;;;;6.05;5.55;;;;;;;20.37;65.53;95889.34;10504350;28;20056;-58
2022/08/15 13:02:31;;;;;;;5.80;5.30;;;;;;;20.38;65.60;95890.91;10517637;28;20052;-58
2022/08/15 13:07:50;;;;;;;5.63;5.22;;;;;;;20.36;64.13;95891.25;10512630;28;20055;-58
2022/08/15 13:13:12;;;;;;;5.55;5.05;;;;;;;20.25;60.91;95888.31;10531459;28;20048;-59
2022/08/15 13:18:32;;;;;;;6.00;5.50;;;;;;;20.11;58.92;95877.13;10541798;28;20053;-59
2022/08/15 13:23:52;;;;;;;6.03;5.43;;;;;;;20.06;59.35;95869.31;10517740;28;20059;-58
2022/08/15 13:29:13;;;;;;;5.70;5.20;;;;;;;20.09;60.75;95855.06;10519520;28;20044;-58
2022/08/15 13:34:34;;;;;;;5.68;5.18;;;;;;;20.11;60.29;95853.63;10529690;28;20400;-59
2022/08/15 13:39:54;;;;;;;5.78;5.28;;;;;;;20.09;60.91;95850.47;10503563;28;20045;-58
2022/08/15 13:45:15;;;;;;;5.35;4.95;;;;;;;20.09;61.28;95853.19;10503132;28;20487;-59
2022/08/15 13:50:35;;;;;;;5.45;5.05;;;;;;;20.09;61.59;95860.47;10514873;28;20048;-59
2022/08/15 13:55:54;;;;;;;5.82;5.22;;;;;;;20.09;61.86;95855.88;10493331;28;20057;-59
2022/08/15 14:01:17;;;;;;;5.22;4.78;;;;;;;20.10;62.02;95862.06;10520447;28;20043;-58
2022/08/15 14:06:38;;;;;;;5.22;4.82;;;;;;;20.11;62.10;95861.72;10502555;28;20056;-58
2022/08/15 14:11:58;;;;;;;5.18;4.78;;;;;;;20.12;62.32;95854.38;10516952;28;20048;-59
2022/08/15 14:17:18;;;;;;;5.47;4.97;;;;;;;20.12;62.16;95879.50;10497367;28;20480;-58
2022/08/15 14:22:38;;;;;;;5.65;5.15;;;;;;;20.12;62.44;95889.53;10530908;28;20056;-59
2022/08/15 14:27:58;;;;;;;5.75;5.25;;;;;;;20.12;62.29;95884.13;10528115;28;20080;-57
2022/08/15 14:33:17;;;;;;;5.22;4.82;;;;;;;20.11;62.05;95866.31;10522036;28;20447;-59
2022/08/15 14:38:37;;;;;;;5.45;4.97;;;;;;;20.12;62.18;95862.50;10530923;28;20044;-59
2022/08/15 14:43:58;;;;;;;5.03;4.63;;;;;;;20.13;62.12;95861.34;10503443;28;20105;-58
2022/08/15 14:49:18;;;;;;;4.95;4.55;;;;;;;20.14;61.96;95860.22;10501547;28;20052;-59
2022/08/15 14:54:38;;;;;;;5.38;4.88;;;;;;;20.14;62.24;95862.94;10513638;28;20386;-59
2022/08/15 14:59:57;;;;;;;4.82;4.43;;;;;;;20.16;62.27;95866.06;10526120;28;20045;-59
2022/08/15 15:05:17;;;;;;;4.57;4.18;;;;;;;20.14;62.09;95858.31;10512933;28;20044;-59
2022/08/15 15:10:37;;;;;;;4.82;4.43;;;;;;;20.14;62.39;95871.81;10499869;28;20040;-59
2022/08/15 15:15:56;;;;;;;4.95;4.45;;;;;;;20.15;62.69;95884.22;10504343;28;20101;-59
2022/08/15 15:21:16;;;;;;;4.68;4.28;;;;;;;20.17;62.47;95893.88;10511215;28;20164;-59
2022/08/15 15:26:36;;;;;;;4.90;4.50;;;;;;;20.16;62.53;95906.63;10500836;28;20069;-59
2022/08/15 15:31:56;;;;;;;5.07;4.18;;;;;;;20.17;62.63;95924.44;10528736;28;20049;-59
2022/08/15 15:37:15;;;;;;;4.30;4.00;;;;;;;20.18;62.74;95933.34;10535878;28;20044;-59
2022/08/15 15:42:34;;;;;;;4.85;4.45;;;;;;;20.20;62.84;95931.84;10535775;28;20055;-59
2022/08/15 15:47:54;;;;;;;6.40;4.50;;;;;;;20.22;63.08;95929.56;10510455;28;20400;-57
2022/08/15 15:53:26;;;;;;;12.88;6.18;;;;;;;20.21;61.92;95930.72;10511278;28;20480;-58
2022/08/15 15:58:45;;;;;;;9.23;5.97;;;;;;;20.11;60.67;95925.81;10534729;28;20500;-59
2022/08/15 16:04:05;;;;;;;12.45;6.05;;;;;;;20.09;60.78;95936.19;10500283;28;20106;-60
2022/08/15 16:09:24;;;;;;;7.28;5.43;;;;;;;20.12;61.35;95922.75;10523184;28;20036;-60
2022/08/15 16:14:53;;;;;;;12.73;5.88;;;;;;;20.17;61.61;95915.53;10535946;28;20442;-59
2022/08/15 16:20:42;;;;;;;6.25;5.63;;;;;;;20.20;62.26;95910.19;10514662;28;20058;-58
2022/08/15 16:26:06;;;;;;;6.30;4.63;;;;;;;20.23;62.68;95887.06;10495798;28;20082;-58
2022/08/15 16:31:28;;;;;;;6.47;4.43;;;;;;;20.24;63.02;95889.44;10507971;28;20062;-60
2022/08/15 16:36:51;;;;;;;7.13;5.05;;;;;;;20.26;63.19;95870.94;10504696;28;20083;-59
2022/08/15 16:42:27;;;;;;;10.15;5.22;;;;;;;20.28;63.37;95865.97;10509038;28;20075;-58
2022/08/15 16:47:56;;;;;;;12.48;6.10;;;;;;;20.30;63.61;95862.91;10524340;28;20045;-58
2022/08/15 16:53:36;;;;;;;11.80;5.78;;;;;;;20.32;63.92;95871.47;10508890;28;20044;-58
2022/08/15 16:59:13;;;;;;;11.65;6.22;;;;;;;20.32;63.96;95866.06;10515933;28;20090;-58
2022/08/15 17:04:43;;;;;;;12.05;5.43;;;;;;;20.32;64.19;95883.06;10499357;28;20040;-57
2022/08/15 17:10:30;;;;;;;12.32;6.10;;;;;;;20.32;64.25;95891.16;10513624;28;20820;-57
2022/08/15 17:16:12;;;;;;;10.05;5.72;;;;;;;20.33;64.38;95897.38;10474509;28;20052;-58
2022/08/15 17:21:49;;;;;;;10.50;6.35;;;;;;;20.33;64.44;95905.50;10492041;28;20070;-57
2022/08/15 17:27:35;;;;;;;12.23;6.38;;;;;;;20.34;64.52;95912.47;10500915;28;20056;-58
2022/08/15 17:32:59;;;;;;;11.73;5.85;;;;;;;20.34;64.59;95912.47;10499175;28;20060;-58
2022/08/15 17:38:22;;;;;;;12.52;6.15;;;;;;;20.34;64.50;95913.25;10488944;28;20055;-58
2022/08/15 17:43:47;;;;;;;12.35;6.45;;;;;;;20.36;64.48;95929.13;10500921;28;20086;-57
2022/08/15 17:49:10;;;;;;;7.65;5.07;;;;;;;20.37;64.78;95935.34;10489016;28;20049;-57
2022/08/15 17:54:34;;;;;;;4.88;4.45;;;;;;;20.38;65.30;95945.78;10522061;28;20041;-57
2022/08/15 18:00:06;;;;;;;7.50;4.78;;;;;;;20.39;65.28;95952.78;10502956;28;20056;-57
2022/08/15 18:05:31;;;;;;;8.50;4.75;;;;;;;20.39;65.53;95950.09;10503805;28;20064;-57
2022/08/15 18:10:55;;;;;;;7.88;4.57;;;;;;;20.40;65.83;95957.03;10506773;28;20044;-56
2022/08/15 18:16:19;;;;;;;6.63;4.20;;;;;;;20.42;66.32;95951.28;10502098;28;20052;-57
2022/08/15 18:21:41;;;;;;;4.88;4.47;;;;;;;20.41;66.46;95950.50;10489303;28;20097;-56
2022/08/15 18:27:20;;;;;;;5.28;4.78;;;;;;;20.42;66.81;95962.13;10505765;28;20484;-59
2022/08/15 18:32:56;;;;;;;5.40;4.90;;;;;;;20.41;66.93;95955.16;10486928;28;20049;-58
2022/08/15 18:38:20;;;;;;;5.50;5.00;;;;;;;20.41;67.08;95966.75;10504661;28;20049;-57
2022/08/15 18:43:45;;;;;;;5.50;4.82;;;;;;;20.42;67.25;95972.94;10527150;28;20097;-56
2022/08/15 18:49:15;;;;;;;5.30;4.78;;;;;;;20.41;67.37;95988.38;10487638;28;20151;-57
2022/08/15 18:54:38;;;;;;;5.57;5.07;;;;;;;20.40;67.41;95986.03;10514533;28;20049;-59
2022/08/15 19:00:26;;;;;;;7.35;5.00;;;;;;;20.39;67.67;95982.53;10487142;28;20053;-59
2022/08/15 19:05:47;;;;;;;5.15;4.60;;;;;;;20.38;67.80;95988.28;10488911;28;20041;-58
2022/08/15 19:11:11;;;;;;;6.32;4.75;;;;;;;20.35;68.09;95989.78;10530978;28;20032;-58
2022/08/15 19:16:41;;;;;;;4.82;4.43;;;;;;;20.33;68.00;95983.94;10499810;28;20075;-57
2022/08/15 19:22:03;;;;;;;5.88;4.55;;;;;;;20.30;67.98;95998.94;10489536;28;20381;-60
2022/08/15 19:27:50;;;;;;;6.22;4.85;;;;;;;20.30;67.57;95998.94;10500901;28;20060;-59
2022/08/15 19:33:22;;;;;;;5.38;4.88;;;;;;;20.31;67.08;96016.75;10488960;28;20090;-59
2022/08/15 19:39:10;;;;;;;5.07;4.57;;;;;;;20.32;66.93;96012.88;10516698;28;20442;-59
2022/08/15 19:45:04;;;;;;;8.60;4.65;;;;;;;20.33;66.74;96009.06;10510129;28;20059;-59
2022/08/15 19:56:24;;;;;;;5.53;4.80;;;;;;;20.34;66.42;96021.44;10488743;28;20054;-59
2022/08/15 20:02:01;;;;;;;5.50;4.38;;;;;;;20.34;66.48;96024.16;10497546;28;20048;-59
2022/08/15 20:07:32;;;;;;;6.53;4.78;;;;;;;20.36;66.31;96029.22;10487059;28;20056;-59
2022/08/15 20:12:57;;;;;;;6.18;4.60;;;;;;;20.37;66.25;96032.72;10497464;28;20071;-58
2022/08/15 20:18:42;;;;;;;5.47;4.82;;;;;;;20.36;66.17;96034.63;10497735;28;20067;-59
2022/08/15 20:24:31;;;;;;;5.43;4.65;;;;;;;20.35;66.25;96044.66;10501654;28;20066;-58
2022/08/15 20:29:59;;;;;;;;;;;;;;;20.35;66.23;96054.72;10497907;28;20045;-58
2022/08/15 20:36:00;;;;;;;4.85;4.45;;;;;;;20.37;66.10;96057.06;10515296;28;19943;-59
2022/08/15 20:41:26;;;;;;;6.55;4.72;;;;;;;20.35;66.00;96063.59;10368970;28;20054;-60
2022/08/15 20:46:53;;;;;;;5.20;4.70;;;;;;;20.36;65.90;96067.09;10475684;28;20052;-59
2022/08/15 20:52:14;;;;;;;5.82;5.03;;;;;;;20.35;66.35;96066.31;10514932;28;20067;-60
2022/08/15 20:57:34;;;;;;;7.13;5.38;;;;;;;20.34;66.67;96078.25;10496672;28;20135;-59
2022/08/15 21:03:27;;;;;;;5.38;4.78;;;;;;;20.33;66.99;96082.09;10497618;28;20048;-59
2022/08/15 21:09:09;;;;;;;5.93;5.30;;;;;;;20.31;67.04;96081.66;10490380;28;20122;-59
2022/08/15 21:14:52;;;;;;;5.90;5.20;;;;;;;20.30;66.98;96092.81;10499400;28;20052;-59
2022/08/15 21:20:14;;;;;;;5.95;5.22;;;;;;;20.29;67.25;96099.38;10525319;28;20041;-59
2022/08/15 21:25:36;;;;;;;6.03;5.22;;;;;;;20.29;67.46;96105.56;10531302;28;20047;-60
2022/08/15 21:31:30;;;;;;;6.72;5.28;;;;;;;20.29;67.41;96105.56;10521146;28;20484;-59
2022/08/15 21:36:52;;;;;;;5.88;5.25;;;;;;;20.27;67.45;96115.94;10507680;28;20086;-60
2022/08/15 21:42:35;;;;;;;6.60;5.03;;;;;;;20.26;67.51;96103.53;10503221;28;20059;-59
2022/08/15 21:48:16;;;;;;;6.13;5.32;;;;;;;20.25;67.52;96110.09;10510613;28;20090;-60
2022/08/15 21:53:36;;;;;;;5.82;5.30;;;;;;;20.24;67.41;96108.50;10508394;28;20427;-60
2022/08/15 21:58:55;;;;;;;5.93;5.32;;;;;;;20.23;67.62;96120.47;10504737;28;20094;-59
2022/08/15 22:04:21;;;;;;;6.40;5.65;;;;;;;20.24;67.50;96121.25;10547786;28;20040;-60
2022/08/15 22:09:47;;;;;;;6.03;5.43;;;;;;;20.22;67.60;96116.19;10518794;28;20435;-59
2022/08/15 22:15:11;;;;;;;5.82;5.32;;;;;;;20.21;67.80;96117.31;10488284;28;20532;-59
2022/08/15 22:20:30;;;;;;;6.38;5.35;;;;;;;20.21;67.72;96113.81;10504802;28;20056;-59
2022/08/15 22:25:50;;;;;;;7.05;6.30;;;;;;;20.21;67.77;96119.22;10538580;28;20063;-59
2022/08/15 22:31:10;;;;;;;6.35;5.35;;;;;;;20.20;67.79;96121.16;10514855;28;20049;-59
2022/08/15 22:36:29;;;;;;;8.55;5.93;;;;;;;20.19;67.57;96118.78;10509343;28;20056;-59
2022/08/15 22:41:50;;;;;;;6.05;5.32;;;;;;;20.18;67.55;96130.75;10506760;28;20067;-60
2022/08/15 22:47:10;;;;;;;5.75;5.25;;;;;;;20.15;67.26;96124.91;10513473;28;20066;-60
2022/08/15 22:52:30;;;;;;;6.70;5.35;;;;;;;20.12;67.15;96114.75;10489193;28;20052;-60
2022/08/15 22:57:50;;;;;;;6.45;5.63;;;;;;;20.10;67.11;96122.44;10500432;28;20052;-60
2022/08/15 23:03:10;;;;;;;6.32;5.63;;;;;;;20.08;66.96;96119.28;10505095;28;20074;-60
2022/08/15 23:08:37;;;;;;;6.32;5.60;;;;;;;20.07;67.02;96125.03;10499718;28;20105;-59
2022/08/15 23:14:03;;;;;;;5.70;5.20;;;;;;;20.06;67.09;96123.47;10513375;28;20074;-59
2022/08/15 23:19:34;;;;;;;6.38;5.50;;;;;;;20.07;67.03;96130.44;10517287;28;20098;-60
2022/08/15 23:24:55;;;;;;;6.00;5.50;;;;;;;20.07;66.80;96123.13;10488050;28;20544;-59
2022/08/15 23:30:21;;;;;;;5.43;4.93;;;;;;;20.05;66.61;96111.88;10499155;28;20438;-60
2022/08/15 23:35:41;;;;;;;5.50;4.90;;;;;;;20.05;66.66;96108.34;10523872;28;20075;-59
2022/08/15 23:41:07;;;;;;;5.65;5.13;;;;;;;20.06;66.49;96107.25;10500788;28;20051;-59
2022/08/15 23:46:27;;;;;;;5.35;4.85;;;;;;;20.04;66.50;96126.50;10510817;28;20059;-59
2022/08/15 23:51:46;;;;;;;6.57;4.97;;;;;;;20.03;66.45;96129.53;10515526;28;20075;-59
2022/08/15 23:57:07;;;;;;;5.70;5.20;;;;;;;20.02;66.37;96138.81;10538031;28;20048;-60
